This demonstration page uses our WeatherBlox Daily Observations layout. Learn more.

39.92423, -83.80882

Hourly Observations for December 22, 2019

Temp ( °F °C ) Dew Point ( °F °C ) Humidity (%) Winds ( mph kmh ) Pressure ( in mb ) Visibility ( mi km ) Precip ( " mm )
12:56 am 00:56 Clear 25 -3.9 25 -3.9 100 100 Calm 30.4 1030 9 14.48406 0 0
1:56 am 01:56 Clear 25 -3.9 25 -3.9 100 100 SSW 3 6 30.4 1029 10 16.0934 0 0
2:56 am 02:56 Clear 27 -2.8 26 -3.3 96 96 Calm 30.39 1029 10 16.0934 0 0
3:56 am 03:56 Clear 27 -2.8 26 -3.3 96 96 SW 3 6 30.39 1029 10 16.0934 0 0
4:56 am 04:56 Clear 31 -0.6 28 -2.2 89 89 SW 3 6 30.38 1029 10 16.0934 0 0
5:56 am 05:56 Clear 24 -4.4 23 -5 96 96 Calm 30.38 1029 9 14.48406 0 0
6:56 am 06:56 Clear 26 -3.3 25 -3.9 96 96 S 5 7 30.39 1029 10 16.0934 0 0
7:56 am 07:56 Sunny 25 -3.9 24 -4.4 96 96 Calm 30.39 1029 7 11.26538 0 0
8:56 am 08:56 Sunny 26 -3.3 25 -3.9 96 96 Calm 30.4 1029 7 11.26538 0 0
9:56 am 09:56 Sunny 34 1.1 33 0.6 97 97 Calm 30.4 1029 9 14.48406 0 0
10:56 am 10:56 Sunny 42 5.6 35 1.7 76 76 Calm 30.4 1029 10 16.0934 0 0
11:56 am 11:56 Sunny 45 7.2 34 1.1 66 66 Calm 30.37 1029 10 16.0934 0 0
12:56 pm 12:56 Sunny 47 8.3 36 2.2 66 66 SSE 6 9 30.34 1027 10 16.0934 0 0
1:56 pm 13:56 Sunny 50 10 38 3.3 63 63 Calm 30.3 1026 10 16.0934 0 0
2:56 pm 14:56 Sunny 51 10.6 36 2.2 56 56 WSW 3 6 30.29 1026 10 16.0934 0 0
3:56 pm 15:56 Sunny 50 10 38 3.3 63 63 SW 3 6 30.29 1026 10 16.0934 0 0
4:56 pm 16:56 Sunny 47 8.3 37 2.8 69 69 Calm 30.29 1026 10 16.0934 0 0
5:56 pm 17:56 Clear 43 6.1 38 3.3 82 82 S 6 9 30.29 1026 10 16.0934 0 0
6:56 pm 18:56 Clear 42 5.6 37 2.8 82 82 S 5 7 30.28 1025 10 16.0934 0 0
7:56 pm 19:56 Clear 39 3.9 35 1.7 86 86 S 5 7 30.29 1026 10 16.0934 0 0
8:56 pm 20:56 Clear 36 2.2 34 1.1 93 93 S 3 6 30.27 1025 10 16.0934 0 0
9:56 pm 21:56 Clear 32 0 31 -0.6 96 96 SSE 3 6 30.26 1025 10 16.0934 0 0
10:56 pm 22:56 Clear 30 -1.1 30 -1.1 100 100 SE 3 6 30.24 1024 9 14.48406 0 0
11:56 pm 23:56 Clear 29 -1.7 29 -1.7 100 100 SSE 3 6 30.23 1024 7 11.26538 0 0

Powered by AerisWeather